Time;durP1;ratioP1;P1;durP2;ratioP2;P2;SDS_P1;SDS_P2;PMS_P1;PMS_P2;Temp;Humidity;BMP_temperature;BMP_pressure;BME280_temperature;BME280_humidity;BME280_pressure;Samples;Min_cycle;Max_cycle;Signal;HPM_P1;HPM_P2
2023/04/21 00:02:23;;;;;;;;;;;;;;;18.24;73.28;100386.09;7397036;19;1850;-50
2023/04/21 00:04:51;;;;;;;;;;;;;;;18.31;73.22;100382.88;7398356;19;1609;-50
2023/04/21 00:07:19;;;;;;;;;;;;;;;18.28;72.98;100366.09;7398359;19;1261;-50
2023/04/21 00:09:48;;;;;;;;;;;;;;;18.21;73.52;100359.59;7399394;19;1621;-49
2023/04/21 00:12:16;;;;;;;;;;;;;;;18.19;73.46;100356.22;7398037;19;1570;-49
2023/04/21 00:14:47;;;;;;;;;;;;;;;18.26;73.29;100352.03;7399142;19;1631;-50
2023/04/21 00:17:15;;;;;;;;;;;;;;;18.26;73.35;100348.47;7396966;19;1522;-49
2023/04/21 00:19:43;;;;;;;;;;;;;;;18.25;73.22;100353.00;7398104;19;1284;-50
2023/04/21 00:22:13;;;;;;;;;;;;;;;18.25;73.19;100349.47;7398021;19;1854;-49
2023/04/21 00:24:42;;;;;;;;;;;;;;;18.17;73.47;100334.13;7398701;19;1281;-49
2023/04/21 00:27:10;;;;;;;;;;;;;;;18.14;73.47;100329.03;7396085;19;1598;-49
2023/04/21 00:29:39;;;;;;;;;;;;;;;18.21;73.19;100332.00;7397315;19;1519;-50
2023/04/21 00:32:10;;;;;;;;;;;;;;;18.27;73.29;100326.94;7398176;19;1392;-49
2023/04/21 00:34:38;;;;;;;;;;;;;;;18.17;73.59;100317.22;7397641;19;1488;-49
2023/04/21 00:37:07;;;;;;;;;;;;;;;18.19;73.52;100312.56;7397219;19;1658;-49
2023/04/21 00:39:35;;;;;;;;;;;;;;;18.28;73.20;100323.28;7397508;19;1546;-49
2023/04/21 00:42:03;;;;;;;;;;;;;;;18.19;73.41;100318.75;7396443;19;1847;-50
2023/04/21 00:44:31;;;;;;;;;;;;;;;18.14;73.46;100307.63;7396940;19;1597;-50
2023/04/21 00:47:00;;;;;;;;;;;;;;;18.15;73.46;100306.66;7396845;19;1529;-49
2023/04/21 00:49:31;;;;;;;;;;;;;;;18.08;73.78;100308.19;7396912;19;1466;-49
2023/04/21 00:52:00;;;;;;;;;;;;;;;18.06;73.89;100311.03;7397625;19;1550;-50
2023/04/21 00:54:28;;;;;;;;;;;;;;;18.14;73.52;100309.47;7397617;19;1001;-49
2023/04/21 00:56:57;;;;;;;;;;;;;;;18.24;73.36;100304.94;7398198;19;1052;-49
2023/04/21 00:59:25;;;;;;;;;;;;;;;18.20;73.16;100295.50;7396473;19;1483;-50
2023/04/21 01:01:54;;;;;;;;;;;;;;;18.24;73.14;100299.59;7396313;19;1857;-49
2023/04/21 01:04:22;;;;;;;;;;;;;;;18.19;73.56;100302.69;7396852;19;1397;-50
2023/04/21 01:06:53;;;;;;;;;;;;;;;18.23;73.32;100296.09;7397060;19;1488;-50
2023/04/21 01:09:22;;;;;;;;;;;;;;;18.26;73.23;100293.13;7396647;19;1476;-49
2023/04/21 01:12:03;;;;;;;;;;;;;;;18.31;73.13;100297.22;7397049;19;1467;-49
2023/04/21 01:14:32;;;;;;;;;;;;;;;18.17;73.77;100296.66;7396341;19;1455;-50
2023/04/21 01:17:00;;;;;;;;;;;;;;;18.16;73.56;100296.78;7396929;19;1554;-49
2023/04/21 01:19:31;;;;;;;;;;;;;;;18.13;73.77;100292.56;7396022;19;1495;-50
2023/04/21 01:22:03;;;;;;;;;;;;;;;18.12;74.01;100301.56;7396825;19;1863;-49
2023/04/21 01:24:37;;;;;;;;;;;;;;;18.19;73.45;100286.66;7396126;19;1218;-50
2023/04/21 01:27:10;;;;;;;;;;;;;;;18.07;73.59;100287.78;7393925;19;1606;-49
2023/04/21 01:29:38;;;;;;;;;;;;;;;18.17;73.73;100301.16;7400062;19;1942;-49
2023/04/21 01:32:08;;;;;;;;;;;;;;;18.13;73.62;100303.28;7403392;19;1245;-49
2023/04/21 01:34:36;;;;;;;;;;;;;;;18.23;73.50;100313.97;7403644;19;1492;-49
2023/04/21 01:37:08;;;;;;;;;;;;;;;18.15;73.72;100317.34;7403371;19;1621;-49
2023/04/21 01:39:39;;;;;;;;;;;;;;;18.14;73.51;100315.66;7402839;19;1325;-49
2023/04/21 01:42:07;;;;;;;;;;;;;;;18.16;73.53;100311.00;7402501;19;1854;-50
2023/04/21 01:44:36;;;;;;;;;;;;;;;18.05;74.09;100316.50;7401718;19;1956;-50
2023/04/21 01:47:04;;;;;;;;;;;;;;;18.87;71.98;100332.06;7402494;19;1237;-50
2023/04/21 01:49:33;;;;;;;;;;;;;;;19.30;70.55;100318.22;7403231;19;1523;-49
2023/04/21 01:52:01;;;;;;;;;;;;;;;19.76;69.29;100303.91;7403271;19;1539;-50
2023/04/21 01:54:32;;;;;;;;;;;;;;;19.79;69.34;100303.56;7403514;19;1851;-49
2023/04/21 01:57:00;;;;;;;;;;;;;;;19.82;69.52;100305.97;7402834;19;1294;-49
2023/04/21 01:59:28;;;;;;;;;;;;;;;19.93;69.17;100304.06;7402623;19;1518;-49
2023/04/21 02:01:57;;;;;;;;;;;;;;;20.00;69.19;100308.66;7401967;19;1853;-48
2023/04/21 02:04:25;;;;;;;;;;;;;;;19.90;69.15;100307.06;7402599;19;1491;-49
2023/04/21 02:06:53;;;;;;;;;;;;;;;19.96;69.41;100303.75;7402666;19;1558;-49
2023/04/21 02:09:22;;;;;;;;;;;;;;;19.96;69.24;100306.44;7401752;19;1367;-50
2023/04/21 02:11:52;;;;;;;;;;;;;;;20.04;68.93;100298.47;7402652;19;1404;-49
2023/04/21 02:14:21;;;;;;;;;;;;;;;20.02;69.07;100297.78;7402174;19;1222;-49
2023/04/21 02:16:49;;;;;;;;;;;;;;;20.02;69.12;100290.56;7402532;19;1547;-49
2023/04/21 02:19:17;;;;;;;;;;;;;;;20.04;69.16;100290.41;7402717;19;1325;-49
2023/04/21 02:21:46;;;;;;;;;;;;;;;20.15;68.91;100283.97;7402584;19;1863;-48
2023/04/21 02:24:14;;;;;;;;;;;;;;;20.17;69.09;100271.22;7401434;19;1432;-49
2023/04/21 02:26:42;;;;;;;;;;;;;;;20.25;68.72;100276.66;7400496;19;1873;-49
2023/04/21 02:29:13;;;;;;;;;;;;;;;20.18;68.77;100287.19;7401692;19;1171;-50
2023/04/21 02:31:41;;;;;;;;;;;;;;;20.15;69.05;100286.63;7402148;19;1224;-49
2023/04/21 02:34:10;;;;;;;;;;;;;;;20.21;68.73;100280.66;7399681;19;1539;-50
2023/04/21 02:36:38;;;;;;;;;;;;;;;20.25;68.77;100279.34;7401643;19;1531;-49
2023/04/21 02:39:07;;;;;;;;;;;;;;;20.23;68.71;100257.16;7401266;19;1396;-49
2023/04/21 02:41:35;;;;;;;;;;;;;;;20.31;68.71;100259.91;7401244;19;1538;-49
2023/04/21 02:44:04;;;;;;;;;;;;;;;20.35;68.47;100280.13;7398420;19;1844;-49
2023/04/21 02:46:34;;;;;;;;;;;;;;;20.35;68.67;100266.69;7400477;19;1420;-48
2023/04/21 02:49:03;;;;;;;;;;;;;;;20.43;68.32;100274.81;7402190;19;1226;-49
2023/04/21 02:51:31;;;;;;;;;;;;;;;20.48;68.28;100263.56;7401387;19;1938;-49
2023/04/21 02:53:59;;;;;;;;;;;;;;;20.42;68.40;100264.22;7400574;19;1584;-48
2023/04/21 02:56:28;;;;;;;;;;;;;;;20.33;68.54;100274.03;7400864;19;1523;-49
2023/04/21 02:58:56;;;;;;;;;;;;;;;20.29;68.79;100263.75;7400914;19;1487;-49
2023/04/21 03:01:24;;;;;;;;;;;;;;;20.35;68.81;100279.25;7400819;19;1622;-49
2023/04/21 03:03:55;;;;;;;;;;;;;;;20.37;68.44;100278.13;7397885;19;1867;-48
2023/04/21 03:06:24;;;;;;;;;;;;;;;20.41;68.46;100279.50;7400755;19;1276;-49
2023/04/21 03:08:52;;;;;;;;;;;;;;;20.35;68.76;100273.88;7400214;19;1447;-49
2023/04/21 03:11:20;;;;;;;;;;;;;;;20.35;68.76;100268.50;7401161;19;1039;-49
2023/04/21 03:13:48;;;;;;;;;;;;;;;20.49;68.23;100283.22;7400212;19;1633;-49
2023/04/21 03:16:17;;;;;;;;;;;;;;;20.49;68.43;100288.59;7399876;19;1919;-49
2023/04/21 03:18:45;;;;;;;;;;;;;;;20.59;67.93;100278.59;7400441;19;1483;-49
2023/04/21 03:21:16;;;;;;;;;;;;;;;20.57;68.11;100269.84;7400534;19;1526;-49
2023/04/21 03:23:45;;;;;;;;;;;;;;;20.52;68.17;100294.50;7397978;19;1859;-49
2023/04/21 03:26:13;;;;;;;;;;;;;;;20.44;68.61;100281.00;7399281;19;1440;-49
2023/04/21 03:28:42;;;;;;;;;;;;;;;20.41;68.74;100281.31;7400587;19;1542;-49
2023/04/21 03:31:10;;;;;;;;;;;;;;;20.44;68.32;100286.38;7400820;19;1681;-48
2023/04/21 03:33:38;;;;;;;;;;;;;;;20.45;68.63;100296.97;7399576;19;1657;-49
2023/04/21 03:36:07;;;;;;;;;;;;;;;20.43;68.58;100284.69;7399790;19;1285;-48
2023/04/21 03:38:38;;;;;;;;;;;;;;;20.49;68.61;100288.59;7400650;19;1191;-49
2023/04/21 03:41:06;;;;;;;;;;;;;;;20.53;68.24;100289.97;7399273;19;1835;-49
2023/04/21 03:43:35;;;;;;;;;;;;;;;20.56;68.25;100293.19;7397669;19;1974;-49
2023/04/21 03:46:03;;;;;;;;;;;;;;;20.71;67.84;100308.75;7398930;19;1281;-49
2023/04/21 03:48:31;;;;;;;;;;;;;;;20.73;67.90;100302.25;7399066;19;1613;-49
2023/04/21 03:50:59;;;;;;;;;;;;;;;20.65;67.83;100305.72;7397588;19;1673;-48
2023/04/21 03:53:28;;;;;;;;;;;;;;;20.62;67.90;100294.44;7397549;19;1554;-48
2023/04/21 03:55:58;;;;;;;;;;;;;;;20.51;68.94;100314.28;7398354;19;1424;-49
2023/04/21 03:58:27;;;;;;;;;;;;;;;20.42;69.50;100315.22;7396780;19;1250;-49
2023/04/21 04:00:55;;;;;;;;;;;;;;;20.24;70.05;100317.94;7400217;19;1737;-49
2023/04/21 04:03:23;;;;;;;;;;;;;;;19.99;70.90;100325.75;7398471;19;1846;-49
2023/04/21 04:05:52;;;;;;;;;;;;;;;19.84;70.91;100328.13;7398812;19;1215;-49
2023/04/21 04:08:20;;;;;;;;;;;;;;;19.72;71.60;100321.28;7397830;19;1516;-49
2023/04/21 04:10:48;;;;;;;;;;;;;;;19.65;71.66;100333.56;7397924;19;1613;-49
2023/04/21 04:13:21;;;;;;;;;;;;;;;19.52;71.96;100328.59;7398338;19;1485;-49
2023/04/21 04:15:49;;;;;;;;;;;;;;;19.45;72.53;100333.69;7399486;19;1788;-49
2023/04/21 04:18:17;;;;;;;;;;;;;;;19.36;73.06;100336.41;7398216;19;1402;-52
2023/04/21 04:20:46;;;;;;;;;;;;;;;19.38;73.17;100353.22;7398115;19;1682;-50
2023/04/21 04:23:14;;;;;;;;;;;;;;;19.31;73.10;100366.34;7395427;19;1864;-51
2023/04/21 04:25:42;;;;;;;;;;;;;;;19.12;73.09;100340.47;7398154;19;1728;-50
2023/04/21 04:28:11;;;;;;;;;;;;;;;19.31;73.22;100352.94;7396448;19;1545;-50
2023/04/21 04:30:42;;;;;;;;;;;;;;;19.58;72.12;100348.59;7399379;19;2004;-48
2023/04/21 04:33:10;;;;;;;;;;;;;;;19.60;72.07;100357.34;7397738;19;1956;-48
2023/04/21 04:35:39;;;;;;;;;;;;;;;19.56;71.76;100358.63;7398042;19;1883;-48
2023/04/21 04:38:07;;;;;;;;;;;;;;;19.59;71.55;100372.56;7397335;19;1523;-50
2023/04/21 04:40:35;;;;;;;;;;;;;;;19.55;71.35;100351.56;7397036;19;1586;-49
2023/04/21 04:43:04;;;;;;;;;;;;;;;19.51;71.50;100348.34;7396454;19;1849;-48
2023/04/21 04:45:32;;;;;;;;;;;;;;;19.43;71.77;100354.44;7396470;19;1931;-49
2023/04/21 04:48:03;;;;;;;;;;;;;;;19.62;71.13;100358.88;7395679;19;1322;-48
2023/04/21 04:50:31;;;;;;;;;;;;;;;19.51;71.53;100359.06;7397142;19;1468;-48
2023/04/21 04:52:59;;;;;;;;;;;;;;;19.43;71.67;100367.84;7397801;19;1487;-49
2023/04/21 04:55:28;;;;;;;;;;;;;;;19.46;71.57;100356.84;7395762;19;1324;-49
2023/04/21 04:57:56;;;;;;;;;;;;;;;19.27;72.06;100373.84;7395492;19;1459;-49
2023/04/21 05:00:25;;;;;;;;;;;;;;;19.25;72.67;100369.63;7396549;19;1582;-49
2023/04/21 05:02:54;;;;;;;;;;;;;;;19.57;72.09;100373.72;7396894;19;1853;-49
2023/04/21 05:05:25;;;;;;;;;;;;;;;19.65;71.59;100381.88;7396203;19;1309;-48
2023/04/21 05:07:54;;;;;;;;;;;;;;;19.58;71.85;100376.25;7396545;19;1203;-48
2023/04/21 05:10:22;;;;;;;;;;;;;;;19.66;71.40;100394.28;7395294;19;1266;-49
2023/04/21 05:12:51;;;;;;;;;;;;;;;19.65;71.34;100379.19;7396376;19;1555;-49
2023/04/21 05:15:19;;;;;;;;;;;;;;;19.52;71.87;100392.06;7393272;19;1408;-49
2023/04/21 05:17:49;;;;;;;;;;;;;;;19.34;72.85;100400.06;7395546;19;1570;-49
2023/04/21 05:20:17;;;;;;;;;;;;;;;19.54;72.28;100398.16;7394901;19;1563;-49
2023/04/21 05:22:48;;;;;;;;;;;;;;;19.60;72.50;100394.91;6870066;19;10000251;-49
2023/04/21 05:25:16;;;;;;;;;;;;;;;19.42;72.69;100390.31;7388034;19;1906;-50
2023/04/21 05:27:45;;;;;;;;;;;;;;;19.34;73.11;100402.75;7388110;19;1839;-49
2023/04/21 05:30:13;;;;;;;;;;;;;;;19.18;73.46;100400.66;7390213;19;1559;-50
2023/04/21 05:32:41;;;;;;;;;;;;;;;19.11;73.67;100402.25;7389703;19;1484;-49
2023/04/21 05:35:10;;;;;;;;;;;;;;;19.23;73.50;100415.34;7388169;19;1899;-48
2023/04/21 05:37:38;;;;;;;;;;;;;;;19.50;72.93;100399.44;7386804;19;1702;-48
2023/04/21 05:40:09;;;;;;;;;;;;;;;19.50;72.90;100404.78;7386996;19;1670;-49
2023/04/21 05:42:38;;;;;;;;;;;;;;;19.45;72.79;100419.50;7386034;19;1452;-56
2023/04/21 05:45:06;;;;;;;;;;;;;;;19.33;73.00;100426.03;7385257;19;1873;-48
2023/04/21 05:47:36;;;;;;;;;;;;;;;19.44;72.50;100444.63;7384434;19;1420;-49
2023/04/21 05:50:04;;;;;;;;;;;;;;;19.29;73.10;100421.94;7387679;19;1401;-49
2023/04/21 05:52:33;;;;;;;;;;;;;;;19.31;73.05;100417.28;7388062;19;1633;-49
2023/04/21 05:55:02;;;;;;;;;;;;;;;19.57;72.32;100422.00;7384623;19;1463;-49
2023/04/21 05:57:33;;;;;;;;;;;;;;;19.44;72.57;100420.50;7385696;19;1067;-48
2023/04/21 06:00:01;;;;;;;;;;;;;;;19.40;72.78;100432.50;7386531;19;1800;-49
2023/04/21 06:02:29;;;;;;;;;;;;;;;19.30;73.10;100420.09;7383603;19;1492;-49
2023/04/21 06:04:58;;;;;;;;;;;;;;;19.22;73.37;100423.53;7381537;19;1876;-49
2023/04/21 06:07:26;;;;;;;;;;;;;;;19.15;73.39;100436.66;7384151;19;1591;-48
2023/04/21 06:09:54;;;;;;;;;;;;;;;19.28;73.26;100434.53;7387910;19;1527;-49
2023/04/21 06:12:23;;;;;;;;;;;;;;;19.39;72.71;100436.16;7386696;19;1436;-49
2023/04/21 06:14:56;;;;;;;;;;;;;;;19.28;73.03;100439.03;7389443;19;1585;-49
2023/04/21 06:17:24;;;;;;;;;;;;;;;19.26;73.06;100441.03;7396033;19;1548;-49
2023/04/21 06:19:54;;;;;;;;;;;;;;;19.28;72.86;100433.69;7395930;19;1571;-49
2023/04/21 06:22:23;;;;;;;;;;;;;;;19.17;73.30;100453.44;7393500;19;2416;-50
2023/04/21 06:24:51;;;;;;;;;;;;;;;19.25;73.20;100448.19;7395444;19;1857;-48
2023/04/21 06:27:19;;;;;;;;;;;;;;;19.57;72.04;100443.44;7395365;19;1964;-48
2023/04/21 06:29:48;;;;;;;;;;;;;;;19.42;72.62;100443.94;7396287;19;1496;-48
2023/04/21 06:32:18;;;;;;;;;;;;;;;19.33;72.67;100444.81;7396238;19;1868;-48
2023/04/21 06:34:47;;;;;;;;;;;;;;;19.26;73.05;100439.19;7394808;19;1590;-50
2023/04/21 06:37:15;;;;;;;;;;;;;;;19.21;73.28;100443.28;7395614;19;1800;-53
2023/04/21 06:39:43;;;;;;;;;;;;;;;19.09;73.55;100431.88;7394408;19;1551;-48
2023/04/21 06:42:12;;;;;;;;;;;;;;;19.31;72.68;100441.41;7394771;19;1456;-49
2023/04/21 06:44:40;;;;;;;;;;;;;;;19.43;72.32;100464.38;7392567;19;1874;-49
2023/04/21 06:47:08;;;;;;;;;;;;;;;19.29;72.62;100454.13;7393759;19;1582;-49
2023/04/21 06:49:39;;;;;;;;;;;;;;;19.26;72.63;100457.13;7392356;19;1567;-49
2023/04/21 06:52:07;;;;;;;;;;;;;;;19.25;72.56;100456.25;7395777;19;1548;-49
2023/04/21 06:54:36;;;;;;;;;;;;;;;19.06;73.18;100457.16;7394840;19;1876;-49
2023/04/21 06:57:04;;;;;;;;;;;;;;;19.17;73.19;100461.50;7395074;19;1670;-49
2023/04/21 06:59:33;;;;;;;;;;;;;;;19.50;72.27;100443.22;7395490;19;1865;-49
2023/04/21 07:02:01;;;;;;;;;;;;;;;19.48;72.19;100462.13;7395085;19;1725;-49
2023/04/21 07:04:31;;;;;;;;;;;;;;;19.47;71.96;100465.78;7391832;19;1874;-49
2023/04/21 07:07:02;;;;;;;;;;;;;;;19.36;72.24;100446.34;7393964;19;1718;-49
2023/04/21 07:09:32;;;;;;;;;;;;;;;19.28;72.30;100450.59;7393922;19;1570;-49
2023/04/21 07:12:01;;;;;;;;;;;;;;;19.27;72.47;100446.22;7395308;19;1737;-49
2023/04/21 07:14:29;;;;;;;;;;;;;;;19.45;72.04;100459.72;7395046;19;1544;-49
2023/04/21 07:16:58;;;;;;;;;;;;;;;19.68;71.40;100451.31;7395442;19;1448;-49
2023/04/21 07:19:26;;;;;;;;;;;;;;;19.60;71.61;100452.06;7395477;19;1515;-49
2023/04/21 07:21:54;;;;;;;;;;;;;;;19.43;72.20;100455.50;7394966;19;2423;-49
2023/04/21 07:24:25;;;;;;;;;;;;;;;19.34;72.27;100454.53;7392262;19;1862;-49
2023/04/21 07:26:53;;;;;;;;;;;;;;;19.20;72.84;100457.66;7391797;19;1809;-49
2023/04/21 07:29:22;;;;;;;;;;;;;;;19.07;73.27;100448.09;7393638;19;1848;-50
2023/04/21 07:31:50;;;;;;;;;;;;;;;19.38;72.47;100461.31;7393753;19;1725;-49
2023/04/21 07:34:18;;;;;;;;;;;;;;;19.81;71.14;100451.84;7392608;19;1508;-49
2023/04/21 07:36:47;;;;;;;;;;;;;;;19.73;71.16;100467.84;7393338;19;1440;-49
2023/04/21 07:39:15;;;;;;;;;;;;;;;19.59;71.75;100455.72;7393533;19;1405;-49
2023/04/21 07:41:46;;;;;;;;;;;;;;;19.42;72.12;100457.34;7393937;19;1753;-50
2023/04/21 07:44:15;;;;;;;;;;;;;;;19.28;72.70;100471.22;7393891;19;1851;-50
2023/04/21 07:46:43;;;;;;;;;;;;;;;19.19;72.91;100456.81;7394051;19;1500;-49
2023/04/21 07:49:11;;;;;;;;;;;;;;;19.38;72.51;100464.00;7394211;19;1488;-49
2023/04/21 07:51:39;;;;;;;;;;;;;;;19.86;70.97;100457.63;7392041;19;1566;-49
2023/04/21 07:54:08;;;;;;;;;;;;;;;19.83;71.17;100467.81;7392613;19;1899;-49
2023/04/21 07:56:36;;;;;;;;;;;;;;;19.66;71.57;100469.41;7393163;19;1373;-49
2023/04/21 07:59:07;;;;;;;;;;;;;;;19.51;72.19;100477.06;7390692;19;1820;-49
2023/04/21 08:01:35;;;;;;;;;;;;;;;19.33;72.45;100473.44;7393068;19;1519;-50
2023/04/21 08:04:03;;;;;;;;;;;;;;;19.25;72.61;100469.66;7392572;19;1849;-49
2023/04/21 08:06:32;;;;;;;;;;;;;;;19.19;72.92;100472.91;7391509;19;1461;-49
2023/04/21 08:09:00;;;;;;;;;;;;;;;19.42;72.55;100464.56;7392335;19;1381;-49
2023/04/21 08:11:29;;;;;;;;;;;;;;;19.80;71.33;100470.78;7393995;19;1730;-49
2023/04/21 08:13:58;;;;;;;;;;;;;;;19.81;71.37;100469.78;7399324;19;1551;-49
2023/04/21 08:16:28;;;;;;;;;;;;;;;19.62;71.59;100476.91;7396915;19;1832;-49
2023/04/21 08:18:57;;;;;;;;;;;;;;;19.48;72.18;100466.66;7398076;19;1896;-49
2023/04/21 08:21:25;;;;;;;;;;;;;;;19.37;72.59;100469.50;7398551;19;1547;-49
2023/04/21 08:23:54;;;;;;;;;;;;;;;19.27;72.75;100469.50;7397479;19;1861;-50
2023/04/21 08:26:22;;;;;;;;;;;;;;;19.21;72.88;100454.84;7396660;19;1586;-50
2023/04/21 08:28:51;;;;;;;;;;;;;;;19.50;72.25;100477.19;7398435;19;1516;-49
2023/04/21 08:31:19;;;;;;;;;;;;;;;19.80;71.15;100465.44;7399999;19;954;-49
2023/04/21 08:33:50;;;;;;;;;;;;;;;19.75;71.43;100465.84;7396310;19;1876;-49
2023/04/21 08:36:19;;;;;;;;;;;;;;;19.61;71.70;100455.56;7399052;19;1572;-49
2023/04/21 08:38:50;;;;;;;;;;;;;;;19.37;72.36;100464.13;7395358;19;1586;-49
2023/04/21 08:41:18;;;;;;;;;;;;;;;19.26;72.88;100467.84;7397979;19;1820;-49
2023/04/21 08:43:47;;;;;;;;;;;;;;;19.28;72.79;100464.00;7397933;19;1862;-49
2023/04/21 08:46:16;;;;;;;;;;;;;;;19.28;72.57;100476.59;7397327;19;1586;-49
2023/04/21 08:48:44;;;;;;;;;;;;;;;19.56;71.99;100479.34;7398034;19;1784;-49
2023/04/21 08:51:19;;;;;;;;;;;;;;;19.79;71.35;100464.56;7396682;19;1603;-49
2023/04/21 08:53:47;;;;;;;;;;;;;;;19.66;71.67;100458.69;7397627;19;1576;-50
2023/04/21 08:56:16;;;;;;;;;;;;;;;19.55;71.77;100466.91;7397079;19;1373;-49
2023/04/21 08:58:44;;;;;;;;;;;;;;;19.55;71.71;100472.25;7397565;19;1400;-50
2023/04/21 09:01:13;;;;;;;;;;;;;;;19.38;72.45;100472.03;7398011;19;1496;-49
2023/04/21 09:03:41;;;;;;;;;;;;;;;19.24;72.80;100475.19;7397342;19;1491;-49
2023/04/21 09:06:11;;;;;;;;;;;;;;;19.23;72.89;100468.94;7396356;19;1849;-49
2023/04/21 09:08:44;;;;;;;;;;;;;;;19.43;72.14;100461.69;7396457;19;1959;-49
2023/04/21 09:11:15;;;;;;;;;;;;;;;19.76;71.47;100451.47;7397551;19;1524;-49
2023/04/21 09:13:44;;;;;;;;;;;;;;;19.68;71.70;100460.22;7397700;19;1859;-49
2023/04/21 09:16:19;;;;;;;;;;;;;;;19.55;71.79;100475.78;7396539;19;1647;-49
2023/04/21 09:18:48;;;;;;;;;;;;;;;19.43;72.19;100455.50;7396702;19;1899;-49
2023/04/21 09:21:17;;;;;;;;;;;;;;;19.30;72.50;100463.00;7396284;19;1709;-49
2023/04/21 09:23:49;;;;;;;;;;;;;;;18.69;72.69;100382.84;7395942;19;1741;-49
2023/04/21 09:26:18;;;;;;;;;;;;;;;19.24;72.85;100470.66;7393879;19;1859;-49
2023/04/21 09:28:47;;;;;;;;;;;;;;;19.38;72.36;100466.66;7395824;19;1721;-49
2023/04/21 09:31:18;;;;;;;;;;;;;;;19.79;71.31;100469.94;7395827;19;1780;-49
2023/04/21 09:33:47;;;;;;;;;;;;;;;19.81;71.29;100462.56;7395211;19;1905;-49
2023/04/21 09:36:22;;;;;;;;;;;;;;;19.70;71.48;100470.81;7397786;19;1523;-49
2023/04/21 09:38:57;;;;;;;;;;;;;;;19.43;72.17;100467.06;7397251;19;1468;-50
2023/04/21 09:41:25;;;;;;;;;;;;;;;19.32;72.71;100458.34;7397339;19;1496;-50
2023/04/21 09:43:53;;;;;;;;;;;;;;;19.32;72.69;100467.25;7396826;19;1962;-49
2023/04/21 09:46:22;;;;;;;;;;;;;;;19.36;72.64;100459.75;7395255;19;1942;-50
2023/04/21 09:48:50;;;;;;;;;;;;;;;19.34;72.60;100470.63;7395634;19;1520;-49
2023/04/21 09:51:19;;;;;;;;;;;;;;;19.35;72.49;100477.66;7402455;19;1480;-49
2023/04/21 09:53:49;;;;;;;;;;;;;;;19.75;71.39;100455.13;7403227;19;1852;-50
2023/04/21 09:56:23;;;;;;;;;;;;;;;19.80;71.30;100444.81;7404136;19;1641;-50
2023/04/21 09:58:54;;;;;;;;;;;;;;;19.69;71.61;100471.78;7403076;19;1808;-50
2023/04/21 10:01:24;;;;;;;;;;;;;;;19.58;71.71;100463.94;7402758;19;1702;-49
2023/04/21 10:03:53;;;;;;;;;;;;;;;19.55;71.77;100472.25;7402561;19;1512;-49
2023/04/21 10:06:21;;;;;;;;;;;;;;;19.47;72.06;100459.56;7401725;19;1869;-50
2023/04/21 10:08:51;;;;;;;;;;;;;;;19.47;72.20;100472.97;7403838;19;1567;-50
2023/04/21 10:11:22;;;;;;;;;;;;;;;19.36;72.22;100460.59;7403666;19;1934;-49
2023/04/21 10:13:52;;;;;;;;;;;;;;;19.28;72.63;100465.84;7403055;19;1709;-49
2023/04/21 10:16:22;;;;;;;;;;;;;;;19.63;71.61;100461.63;7403048;19;1594;-50
2023/04/21 10:18:50;;;;;;;;;;;;;;;19.69;71.36;100466.41;7403337;19;1741;-49
2023/04/21 10:21:20;;;;;;;;;;;;;;;19.55;71.79;100461.53;7402812;19;1841;-49
2023/04/21 10:23:51;;;;;;;;;;;;;;;19.43;72.31;100468.91;7402377;19;1575;-49
2023/04/21 10:26:23;;;;;;;;;;;;;;;19.53;71.81;100466.19;7399600;19;1853;-50
2023/04/21 10:28:54;;;;;;;;;;;;;;;19.45;71.84;100462.41;7403073;19;1675;-49
2023/04/21 10:31:25;;;;;;;;;;;;;;;19.41;72.10;100468.22;7403038;19;1528;-49
2023/04/21 10:34:09;;;;;;;;;;;;;;;19.33;72.15;100462.72;7401974;19;1560;-49
2023/04/21 10:36:44;;;;;;;;;;;;;;;19.67;71.61;100465.72;7402995;19;1559;-49
2023/04/21 10:39:15;;;;;;;;;;;;;;;19.66;71.56;100469.41;7402129;19;1820;-49
2023/04/21 10:41:46;;;;;;;;;;;;;;;19.57;71.74;100471.13;7403145;19;1785;-49
2023/04/21 10:44:15;;;;;;;;;;;;;;;19.44;72.21;100466.09;7402813;19;1171;-49
2023/04/21 10:46:47;;;;;;;;;;;;;;;19.56;71.82;100473.97;7400560;19;1841;-49
2023/04/21 10:49:23;;;;;;;;;;;;;;;19.34;72.20;100465.28;7401628;19;1773;-49
2023/04/21 10:52:08;;;;;;;;;;;;;;;19.24;72.44;100459.94;7401672;19;1942;-49
2023/04/21 10:54:44;;;;;;;;;;;;;;;19.22;72.22;100461.06;7402007;19;1922;-49
2023/04/21 10:57:16;;;;;;;;;;;;;;;19.58;70.62;100467.44;7401353;19;1860;-49
2023/04/21 10:59:44;;;;;;;;;;;;;;;19.55;69.52;100466.91;6873312;19;10000907;-51
2023/04/21 11:02:13;;;;;;;;;;;;;;;19.41;69.71;100471.72;7393778;19;1567;-52
2023/04/21 11:04:46;;;;;;;;;;;;;;;19.30;70.66;100468.38;7394023;19;1866;-52
2023/04/21 11:07:15;;;;;;;;;;;;;;;19.32;69.76;100459.22;7398569;19;1294;-52
2023/04/21 11:09:44;;;;;;;;;;;;;;;19.57;69.23;100475.63;7396905;19;1310;-52
2023/04/21 11:12:16;;;;;;;;;;;;;;;19.50;69.15;100475.38;7398031;19;1456;-51
2023/04/21 11:14:46;;;;;;;;;;;;;;;19.46;68.46;100458.75;7397532;19;1396;-51
2023/04/21 11:17:15;;;;;;;;;;;;;;;19.69;67.36;100482.50;7397453;19;1393;-51
2023/04/21 11:19:46;;;;;;;;;;;;;;;19.70;67.46;100465.44;7396295;19;1319;-52
2023/04/21 11:22:15;;;;;;;;;;;;;;;19.55;67.72;100450.81;7397550;19;1388;-51
2023/04/21 11:24:46;;;;;;;;;;;;;;;19.47;68.07;100465.78;7397630;19;1863;-51
2023/04/21 11:27:17;;;;;;;;;;;;;;;19.47;67.90;100463.09;7395014;19;1372;-51
2023/04/21 11:29:46;;;;;;;;;;;;;;;19.38;67.05;100472.03;7396208;19;1408;-50
2023/04/21 11:32:15;;;;;;;;;;;;;;;19.47;66.48;100471.13;7397837;19;1215;-52
2023/04/21 11:34:44;;;;;;;;;;;;;;;19.50;66.79;100472.72;7396369;19;1206;-51
2023/04/21 11:37:16;;;;;;;;;;;;;;;19.46;66.80;100471.31;7396445;19;1441;-50
2023/04/21 11:39:44;;;;;;;;;;;;;;;19.76;66.02;100454.16;7397306;19;1460;-50
2023/04/21 11:42:13;;;;;;;;;;;;;;;19.67;65.99;100452.31;7396258;19;1480;-51
2023/04/21 11:44:44;;;;;;;;;;;;;;;19.59;66.52;100460.25;7395193;19;1385;-51
2023/04/21 11:47:16;;;;;;;;;;;;;;;19.43;66.93;100456.34;7393924;19;2297;-51
2023/04/21 11:49:48;;;;;;;;;;;;;;;19.53;67.03;100453.63;7396215;19;1367;-51
2023/04/21 11:52:27;;;;;;;;;;;;;;;19.48;67.40;100456.75;7395559;19;1397;-51
2023/04/21 11:54:59;;;;;;;;;;;;;;;19.54;67.43;100435.72;7397009;19;1139;-51
2023/04/21 11:57:28;;;;;;;;;;;;;;;19.56;67.68;100457.88;7396390;19;1115;-50
2023/04/21 11:59:59;;;;;;;;;;;;;;;19.48;67.91;100445.19;7397247;19;1554;-51
2023/04/21 12:02:28;;;;;;;;;;;;;;;19.81;67.19;100457.22;7397951;19;1804;-51
2023/04/21 12:05:00;;;;;;;;;;;;;;;19.82;67.15;100441.97;7397662;19;1853;-51
2023/04/21 12:07:30;;;;;;;;;;;;;;;19.68;67.81;100443.28;7397118;19;1598;-52
2023/04/21 12:09:58;;;;;;;;;;;;;;;19.62;68.04;100460.81;7396690;19;1518;-50
2023/04/21 12:12:27;;;;;;;;;;;;;;;19.57;68.54;100448.81;7395358;19;1543;-50
2023/04/21 12:14:55;;;;;;;;;;;;;;;19.56;68.47;100447.97;7398569;19;1522;-51
2023/04/21 12:17:26;;;;;;;;;;;;;;;19.55;68.35;100451.63;7395363;19;1424;-51
2023/04/21 12:19:54;;;;;;;;;;;;;;;19.42;68.80;100462.72;7396538;19;1147;-50
2023/04/21 12:22:23;;;;;;;;;;;;;;;19.42;68.94;100446.63;7396961;19;1460;-50
2023/04/21 12:24:52;;;;;;;;;;;;;;;19.77;68.21;100455.81;7395451;19;1384;-51
2023/04/21 12:27:20;;;;;;;;;;;;;;;19.88;67.41;100449.44;7394266;19;1857;-50
2023/04/21 12:29:48;;;;;;;;;;;;;;;19.76;68.30;100442.56;7394103;19;1424;-51
2023/04/21 12:32:17;;;;;;;;;;;;;;;19.64;68.61;100433.84;7394718;19;1338;-51
2023/04/21 12:34:48;;;;;;;;;;;;;;;19.54;68.82;100443.78;7394679;19;1404;-50
2023/04/21 12:37:16;;;;;;;;;;;;;;;19.46;69.31;100436.44;7394473;19;1444;-50
2023/04/21 12:39:44;;;;;;;;;;;;;;;19.39;69.75;100443.38;7394346;19;1447;-48
2023/04/21 12:42:13;;;;;;;;;;;;;;;19.36;69.84;100439.16;7395068;19;1269;-48
2023/04/21 12:44:41;;;;;;;;;;;;;;;19.35;69.94;100440.13;7396210;19;1842;-48
2023/04/21 12:47:09;;;;;;;;;;;;;;;19.82;69.39;100436.63;7395006;19;1846;-47
2023/04/21 12:49:37;;;;;;;;;;;;;;;20.21;70.10;100436.38;7397005;19;1570;-48
2023/04/21 12:52:08;;;;;;;;;;;;;;;20.08;73.07;100431.38;7396538;19;1459;-48
2023/04/21 12:54:37;;;;;;;;;;;;;;;19.90;74.55;100427.81;7396930;19;1242;-48
2023/04/21 12:57:05;;;;;;;;;;;;;;;19.71;76.39;100434.94;7396839;19;1496;-48